Airfield :
LOGIN :

Register | Disclaimer

   EN    FR    IT 

 










Legend :    VFR   Marginal VFR   IFR   Intensive IFR   Very Intensive IFR
Visi :
Ceiling :
>= 8 km
>= 3000ft
5 to 8 km
1000 to 3000 ft
1500m to 5 km
500 to 1000 ft
800 to 1500m
200 to 500 ft
< 800m
< 200 ft
Symbols :   Thunderstorms  Fog  Heavy snow  Heavy precipitations  Wind > 20 kt
SIGMETs :     Misc.  Thunderstorms  Icing  Turbulence  Mountain Waves  Volcanic Ashes







- Airport Elevation : 86 ft
- IATA code : HAU


ENHD - Haugesund

CURRENT METAR :
  • 230620Z 23012KT 9999 VCSH SCT016 BKN030 16/12 Q1015

EXPIRED METARs :
  • 230550Z 23012KT 9999 VCSH SCT015 BKN027 16/12 Q1015
  • 230520Z 23012KT 9999 VCSH FEW010 BKN049 16/13 Q1014
  • 230450Z 23013KT 9999 FEW010 BKN047 16/13 Q1014
  • 230420Z 24012KT 9999 FEW010 BKN046 16/13 Q1014
  • 230350Z AUTO 24013KT 9999 BKN044/// 16/13 Q1013

TAF TAF ENHD
Valid from the 23 at 06:00 until the 23 at 15:00 UTC


230500Z 2306/2315 23015KT 9999 FEW012 BKN035
BECMG 2312/2315 4000 -DZ BR BKN008
No reported NOTAMs for that airfield.



MET'MAP, your aeronautical weather chart ! - Copyright ORBIFLY December 2007 - Disclaimer

ORBIFLY MET'MAP TEAM :

Programming & Development : Alexandra Zaïnal
Concept & Development : Baudouin d'Aumeries
Co-Development & Prog : Marc-Olivier Méhu
Technical & hardware support : Manuel Goepfert

Contact : metmap@orbifly.com




SOURCES & CREDITS :

   NOAA